Time;durP1;ratioP1;P1;durP2;ratioP2;P2;SDS_P1;SDS_P2;PMS_P1;PMS_P2;Temp;Humidity;BMP_temperature;BMP_pressure;BME280_temperature;BME280_humidity;BME280_pressure;Samples;Min_cycle;Max_cycle;Signal;HPM_P1;HPM_P2
2021/01/03 00:00:40;;;;;;;83.97;44.78;;;3.30;93.60;;;;;;5093343;28;20542;-72
2021/01/03 00:03:06;;;;;;;128.35;47.92;;;3.30;93.60;;;;;;5095745;28;20093;-73
2021/01/03 00:05:33;;;;;;;69.82;42.30;;;3.30;93.60;;;;;;5095302;28;20048;-73
2021/01/03 00:07:59;;;;;;;83.03;45.85;;;3.40;93.60;;;;;;5091175;28;20467;-72
2021/01/03 00:10:25;;;;;;;74.63;45.22;;;3.30;93.60;;;;;;5096996;28;20028;-72
2021/01/03 00:12:51;;;;;;;76.70;44.20;;;3.40;93.70;;;;;;5101096;28;20031;-72
2021/01/03 00:15:20;;;;;;;81.57;46.28;;;3.40;93.70;;;;;;5073025;28;20069;-72
2021/01/03 00:17:46;;;;;;;94.85;51.03;;;3.40;93.70;;;;;;5090775;28;20040;-74
2021/01/03 00:20:19;;;;;;;76.43;45.03;;;3.40;93.70;;;;;;5093324;28;20122;-72
2021/01/03 00:22:46;;;;;;;74.05;41.17;;;3.40;93.70;;;;;;5095935;28;20020;-72
2021/01/03 00:25:12;;;;;;;67.05;37.22;;;3.40;93.70;;;;;;5090228;28;20063;-72
2021/01/03 00:27:37;;;;;;;69.25;38.85;;;3.40;93.70;;;;;;5089198;28;20047;-72
2021/01/03 00:30:14;;;;;;;97.55;43.95;;;3.40;93.70;;;;;;5083539;28;20024;-72
2021/01/03 00:32:39;;;;;;;64.93;38.78;;;3.40;93.70;;;;;;5095491;28;20039;-72
2021/01/03 00:35:09;;;;;;;101.97;40.83;;;3.40;93.70;;;;;;5096277;28;20028;-72
2021/01/03 00:37:35;;;;;;;65.90;37.80;;;3.40;93.70;;;;;;5099563;28;20493;-72
2021/01/03 00:40:00;;;;;;;120.25;41.65;;;3.40;93.70;;;;;;5095283;28;20028;-73
2021/01/03 00:42:26;;;;;;;80.15;40.38;;;3.40;93.70;;;;;;5090200;28;20032;-72
2021/01/03 00:44:52;;;;;;;71.65;40.03;;;3.40;93.80;;;;;;5088561;28;20043;-72
2021/01/03 00:47:18;;;;;;;105.97;41.03;;;3.40;93.80;;;;;;5092742;28;20086;-72
2021/01/03 00:49:43;;;;;;;73.47;39.97;;;3.40;93.80;;;;;;5096706;28;20057;-71
2021/01/03 00:52:09;;;;;;;70.25;39.40;;;3.40;93.90;;;;;;5096669;28;20080;-72
2021/01/03 00:54:34;;;;;;;68.05;39.65;;;3.40;93.80;;;;;;5100794;28;20039;-72
2021/01/03 00:57:00;;;;;;;75.60;41.80;;;3.40;93.80;;;;;;5097668;28;20377;-72
2021/01/03 00:59:25;;;;;;;89.25;42.85;;;3.40;93.90;;;;;;5091782;28;20039;-72
2021/01/03 01:01:51;;;;;;;76.60;41.28;;;3.40;93.90;;;;;;5096243;28;20051;-71
2021/01/03 01:04:17;;;;;;;111.85;41.83;;;3.40;93.90;;;;;;5090831;28;20125;-71
2021/01/03 01:06:42;;;;;;;71.45;40.50;;;3.40;93.90;;;;;;5091822;28;20061;-72
2021/01/03 01:09:08;;;;;;;75.38;41.25;;;3.40;93.80;;;;;;5093125;28;20752;-72
2021/01/03 01:11:39;;;;;;;160.70;48.60;;;3.40;93.80;;;;;;5092888;28;20036;-71
2021/01/03 01:14:04;;;;;;;76.07;41.03;;;3.40;93.80;;;;;;5093324;28;20119;-72
2021/01/03 01:16:30;;;;;;;68.40;39.15;;;3.40;93.80;;;;;;5104741;28;20498;-72
2021/01/03 01:18:56;;;;;;;74.32;41.55;;;3.40;93.80;;;;;;5095136;28;20042;-72
2021/01/03 01:21:21;;;;;;;77.93;39.35;;;3.40;93.80;;;;;;5093131;28;20124;-72
2021/01/03 01:23:47;;;;;;;67.97;39.75;;;3.40;93.90;;;;;;5102240;28;20035;-71
2021/01/03 01:26:13;;;;;;;76.22;39.55;;;3.40;93.80;;;;;;5090676;28;20070;-72
2021/01/03 01:28:38;;;;;;;100.05;42.63;;;3.30;93.80;;;;;;5090187;28;20028;-72
2021/01/03 01:31:04;;;;;;;74.90;41.35;;;3.40;93.90;;;;;;5088875;28;20028;-72
2021/01/03 01:33:30;;;;;;;70.97;40.70;;;3.40;93.90;;;;;;5090934;28;20482;-72
2021/01/03 01:35:55;;;;;;;80.03;42.15;;;3.40;93.90;;;;;;5095946;28;20044;-73
2021/01/03 01:38:21;;;;;;;77.00;42.72;;;3.40;94.00;;;;;;5090418;28;20081;-72
2021/01/03 01:40:47;;;;;;;70.60;39.67;;;3.40;94.00;;;;;;5091440;28;20062;-74
2021/01/03 01:43:15;;;;;;;72.75;41.70;;;3.40;94.10;;;;;;5097808;28;20040;-72
2021/01/03 01:45:44;;;;;;;76.45;40.15;;;3.50;94.00;;;;;;5093563;28;20020;-72
2021/01/03 01:48:16;;;;;;;82.05;41.05;;;3.50;94.00;;;;;;5097669;28;20059;-71
2021/01/03 01:50:55;;;;;;;69.13;38.72;;;3.40;93.90;;;;;;5085446;28;20462;-72
2021/01/03 01:53:43;;;;;;;90.32;41.63;;;3.40;93.80;;;;;;5074355;28;20152;-72
2021/01/03 01:56:19;;;;;;;70.07;40.03;;;3.40;93.70;;;;;;5084538;28;20062;-71
2021/01/03 01:59:02;;;;;;;67.65;39.10;;;3.40;93.80;;;;;;5093587;28;20039;-75
2021/01/03 02:01:53;;;;;;;87.47;43.60;;;3.40;93.80;;;;;;5082840;28;20078;-73
2021/01/03 02:04:28;;;;;;;103.57;43.08;;;3.40;93.80;;;;;;5084139;28;20126;-73
2021/01/03 02:07:22;;;;;;;97.72;42.47;;;3.40;93.90;;;;;;5091148;28;20028;-73
2021/01/03 02:09:57;;;;;;;112.07;43.25;;;3.40;93.80;;;;;;5090969;28;20043;-73
2021/01/03 02:12:33;;;;;;;68.45;39.80;;;3.40;93.80;;;;;;5103172;28;20906;-73
2021/01/03 02:14:59;;;;;;;68.85;39.80;;;3.40;93.90;;;;;;5096079;28;20077;-73
2021/01/03 02:17:25;;;;;;;75.25;39.55;;;3.40;93.90;;;;;;5101166;28;20036;-73
2021/01/03 02:19:52;;;;;;;65.88;37.83;;;3.40;93.90;;;;;;5089640;28;20031;-72
2021/01/03 02:22:38;;;;;;;63.70;39.03;;;3.40;93.90;;;;;;5077674;28;20374;-72
2021/01/03 02:25:08;;;;;;;72.03;39.55;;;3.50;93.90;;;;;;5094456;28;20031;-72
2021/01/03 02:27:39;;;;;;;67.65;39.30;;;3.40;93.80;;;;;;5094537;28;20028;-74
2021/01/03 02:30:08;;;;;;;65.38;38.05;;;3.40;93.80;;;;;;5095998;28;20027;-72
2021/01/03 02:32:36;;;;;;;63.17;39.20;;;3.40;93.80;;;;;;5074852;28;20420;-72
2021/01/03 02:35:05;;;;;;;59.55;38.28;;;3.40;93.70;;;;;;5087515;28;20035;-73
2021/01/03 02:37:37;;;;;;;61.70;37.55;;;3.40;93.60;;;;;;5090599;28;20052;-73
2021/01/03 02:40:19;;;;;;;115.90;42.72;;;3.30;93.70;;;;;;5096222;28;20032;-74
2021/01/03 02:42:45;;;;;;;68.80;38.17;;;3.40;93.70;;;;;;5096244;28;20093;-73
2021/01/03 02:45:21;;;;;;;114.43;44.03;;;3.30;93.70;;;;;;5079577;28;20446;-74
2021/01/03 02:47:47;;;;;;;66.10;38.67;;;3.30;93.60;;;;;;5096871;28;20031;-73
2021/01/03 02:50:25;;;;;;;64.72;39.00;;;3.20;93.70;;;;;;5095996;28;20036;-73
2021/01/03 02:52:52;;;;;;;71.53;40.03;;;3.20;93.70;;;;;;5095986;28;20798;-73
2021/01/03 02:55:18;;;;;;;109.88;43.38;;;3.20;93.70;;;;;;5077401;28;20417;-73
2021/01/03 02:57:45;;;;;;;120.60;42.70;;;3.20;93.70;;;;;;5092656;28;20043;-73
2021/01/03 03:00:21;;;;;;;105.85;43.17;;;3.10;93.70;;;;;;5075929;28;20059;-74
2021/01/03 03:02:47;;;;;;;225.45;51.47;;;3.10;93.80;;;;;;5092708;28;20054;-74
2021/01/03 03:05:13;;;;;;;76.43;42.65;;;3.00;93.80;;;;;;5101307;28;20034;-73
2021/01/03 03:07:39;;;;;;;115.72;44.17;;;3.00;94.00;;;;;;5094592;28;20028;-73
2021/01/03 03:10:06;;;;;;;124.68;47.22;;;3.00;94.00;;;;;;5101950;28;20036;-73
2021/01/03 03:12:31;;;;;;;136.95;46.20;;;3.00;94.10;;;;;;5100557;28;20230;-73
2021/01/03 03:14:57;;;;;;;165.40;50.42;;;2.90;94.20;;;;;;5090870;28;20146;-73
2021/01/03 03:17:22;;;;;;;141.23;49.47;;;2.90;94.30;;;;;;5076323;28;20048;-73
2021/01/03 03:19:48;;;;;;;87.70;44.38;;;2.90;94.40;;;;;;5093967;28;20088;-73
2021/01/03 03:22:14;;;;;;;70.25;41.88;;;3.00;94.50;;;;;;5093865;28;20028;-73
2021/01/03 03:24:39;;;;;;;96.78;47.63;;;3.00;94.60;;;;;;5092065;28;20032;-73
2021/01/03 03:27:05;;;;;;;80.45;43.75;;;3.10;94.60;;;;;;5078733;28;20044;-74
2021/01/03 03:29:30;;;;;;;72.72;41.38;;;3.10;94.70;;;;;;5100774;28;20044;-74
2021/01/03 03:31:57;;;;;;;219.52;55.08;;;3.10;94.70;;;;;;5094895;28;20078;-74
2021/01/03 03:34:25;;;;;;;82.65;42.72;;;3.10;94.50;;;;;;5091349;28;20437;-73
2021/01/03 03:36:52;;;;;;;101.10;46.42;;;3.00;94.50;;;;;;5090253;28;20075;-72
2021/01/03 03:39:18;;;;;;;107.53;46.95;;;3.00;94.50;;;;;;5101740;28;20035;-72
2021/01/03 03:41:44;;;;;;;101.35;45.38;;;3.10;94.60;;;;;;5099033;28;20378;-72
2021/01/03 03:44:09;;;;;;;125.65;47.78;;;3.10;94.60;;;;;;5096283;28;20523;-73
2021/01/03 03:46:35;;;;;;;92.93;45.22;;;3.10;94.60;;;;;;5090394;28;20114;-73
2021/01/03 03:49:01;;;;;;;162.45;47.72;;;3.00;94.60;;;;;;5099324;28;20048;-73
2021/01/03 03:51:27;;;;;;;74.63;42.60;;;3.00;94.60;;;;;;5089156;28;20027;-73
2021/01/03 03:53:52;;;;;;;77.97;42.80;;;3.00;94.70;;;;;;5089534;28;20052;-72
2021/01/03 03:56:18;;;;;;;81.50;44.17;;;3.10;94.70;;;;;;5090082;28;20032;-73
2021/01/03 03:58:44;;;;;;;80.40;43.40;;;3.10;94.70;;;;;;5094046;28;20032;-73
2021/01/03 04:01:10;;;;;;;74.25;41.83;;;3.10;94.80;;;;;;5093083;28;20040;-74
2021/01/03 04:03:36;;;;;;;80.65;44.60;;;3.20;94.80;;;;;;5091577;28;20077;-73
2021/01/03 04:06:03;;;;;;;96.93;47.88;;;3.20;94.80;;;;;;5094120;28;20046;-73
2021/01/03 04:08:28;;;;;;;89.00;44.45;;;3.30;94.90;;;;;;5091294;28;20087;-74
2021/01/03 04:10:54;;;;;;;87.15;42.20;;;3.30;94.80;;;;;;5094346;28;20024;-73
2021/01/03 04:13:20;;;;;;;78.72;42.25;;;3.30;94.80;;;;;;5100224;28;20039;-73
2021/01/03 04:15:45;;;;;;;78.30;41.97;;;3.30;94.80;;;;;;5091788;28;20043;-73
2021/01/03 04:18:11;;;;;;;80.38;43.97;;;3.30;94.90;;;;;;5088031;28;20396;-73
2021/01/03 04:20:38;;;;;;;82.53;43.28;;;3.40;94.80;;;;;;5087788;28;20070;-73
2021/01/03 04:23:07;;;;;;;89.88;44.42;;;3.40;94.80;;;;;;5091631;28;20056;-73
2021/01/03 04:25:33;;;;;;;72.40;41.33;;;3.40;94.80;;;;;;5075255;28;20050;-72
2021/01/03 04:27:59;;;;;;;99.18;45.50;;;3.40;94.90;;;;;;5093792;28;20433;-73
2021/01/03 04:30:26;;;;;;;79.63;43.47;;;3.40;94.80;;;;;;5092354;28;20103;-73
2021/01/03 04:32:53;;;;;;;88.28;45.05;;;3.40;94.80;;;;;;5097014;28;20052;-73
2021/01/03 04:35:20;;;;;;;106.60;48.95;;;3.40;94.80;;;;;;5089752;28;20040;-72
2021/01/03 04:37:45;;;;;;;89.05;44.35;;;3.50;94.80;;;;;;5092027;28;20043;-73
2021/01/03 04:40:18;;;;;;;82.53;44.63;;;3.50;94.90;;;;;;5091461;28;20427;-73
2021/01/03 04:42:45;;;;;;;99.82;47.30;;;3.50;94.80;;;;;;5094140;28;20058;-73
2021/01/03 04:45:36;;;;;;;83.82;44.08;;;3.50;94.90;;;;;;5095637;28;20031;-73
2021/01/03 04:48:04;;;;;;;78.22;43.38;;;3.50;94.80;;;;;;5095625;28;20047;-72
2021/01/03 04:50:48;;;;;;;174.38;50.67;;;3.50;94.80;;;;;;5092366;28;20510;-73
2021/01/03 04:53:43;;;;;;;103.30;48.10;;;3.50;94.70;;;;;;5091386;28;20044;-73
2021/01/03 04:56:31;;;;;;;106.22;45.13;;;3.40;94.70;;;;;;5090587;28;20374;-73
2021/01/03 04:59:12;;;;;;;76.78;41.22;;;3.50;94.70;;;;;;5084357;28;20059;-73
2021/01/03 05:02:10;;;;;;;93.13;44.92;;;3.40;94.60;;;;;;5098245;28;20104;-72
2021/01/03 05:04:51;;;;;;;86.80;45.92;;;3.50;94.70;;;;;;5080041;28;20028;-73
2021/01/03 05:07:31;;;;;;;83.30;43.25;;;3.50;94.70;;;;;;5086506;28;20034;-73
2021/01/03 05:10:19;;;;;;;85.75;42.42;;;3.50;94.70;;;;;;5095392;28;20101;-73
2021/01/03 05:13:15;;;;;;;82.88;44.20;;;3.50;94.70;;;;;;5095297;28;20063;-72
2021/01/03 05:15:40;;;;;;;89.53;43.53;;;3.50;94.60;;;;;;5089454;28;20058;-73
2021/01/03 05:18:06;;;;;;;95.03;43.97;;;3.50;94.60;;;;;;5096771;28;20470;-73
2021/01/03 05:20:32;;;;;;;78.18;41.63;;;3.50;94.60;;;;;;5095681;28;20024;-72
2021/01/03 05:23:20;;;;;;;85.22;44.13;;;3.50;94.60;;;;;;5077100;28;20093;-72
2021/01/03 05:25:47;;;;;;;90.10;42.58;;;3.50;94.60;;;;;;5077389;28;20428;-74
2021/01/03 05:28:24;;;;;;;82.30;44.13;;;3.60;94.70;;;;;;5093017;28;20035;-73
2021/01/03 05:30:50;;;;;;;87.68;44.10;;;3.60;94.60;;;;;;5082098;28;20032;-73
2021/01/03 05:33:27;;;;;;;87.75;42.90;;;3.60;94.60;;;;;;5089255;28;20474;-73
2021/01/03 05:35:54;;;;;;;84.53;42.88;;;3.60;94.60;;;;;;5091543;28;20131;-73
2021/01/03 05:38:36;;;;;;;93.13;42.47;;;3.60;94.60;;;;;;5097795;28;20051;-73
2021/01/03 05:41:12;;;;;;;115.35;47.08;;;3.60;94.50;;;;;;5094508;28;20059;-72
2021/01/03 05:43:38;;;;;;;98.40;43.80;;;3.50;94.50;;;;;;5096335;28;20040;-73
2021/01/03 05:46:16;;;;;;;101.18;44.45;;;3.50;94.50;;;;;;5100594;28;20051;-73
2021/01/03 05:49:04;;;;;;;133.70;47.58;;;3.50;94.40;;;;;;5092623;28;20362;-72
2021/01/03 05:51:42;;;;;;;117.68;48.28;;;3.50;94.40;;;;;;5098389;28;20031;-73
2021/01/03 05:54:13;;;;;;;135.43;48.17;;;3.40;94.50;;;;;;5095555;28;20370;-73
2021/01/03 05:56:40;;;;;;;138.57;49.55;;;3.40;94.50;;;;;;5090733;28;20064;-72
2021/01/03 05:59:05;;;;;;;134.55;49.20;;;3.40;94.50;;;;;;5079711;28;20036;-73
2021/01/03 06:01:35;;;;;;;194.30;53.40;;;3.40;94.60;;;;;;5096864;28;20490;-73
2021/01/03 06:04:20;;;;;;;142.20;50.00;;;3.40;94.60;;;;;;5091200;28;20135;-73
2021/01/03 06:06:50;;;;;;;142.55;51.55;;;3.30;94.70;;;;;;5103828;28;20080;-74
2021/01/03 06:09:19;;;;;;;129.57;50.38;;;3.40;94.80;;;;;;5092231;28;20036;-73
2021/01/03 06:12:16;;;;;;;123.72;49.47;;;3.40;94.80;;;;;;5094365;28;20104;-73
2021/01/03 06:14:42;;;;;;;119.82;53.35;;;3.40;94.90;;;;;;5093882;28;20142;-73
2021/01/03 06:17:31;;;;;;;168.35;55.30;;;3.40;94.90;;;;;;5097985;28;20114;-72
2021/01/03 06:20:10;;;;;;;109.72;48.50;;;3.50;95.00;;;;;;5102832;28;20039;-73
2021/01/03 06:22:48;;;;;;;182.23;53.97;;;3.40;95.00;;;;;;5094980;28;20474;-74
2021/01/03 06:25:32;;;;;;;160.70;53.85;;;3.40;94.90;;;;;;5094672;28;20043;-72
2021/01/03 06:28:21;;;;;;;140.25;51.47;;;3.40;95.00;;;;;;5100571;28;20478;-73
2021/01/03 06:31:13;;;;;;;167.75;55.50;;;3.40;95.00;;;;;;5075657;28;20043;-73
2021/01/03 06:33:38;;;;;;;158.13;58.58;;;3.40;95.00;;;;;;5089733;28;20040;-72
2021/01/03 06:36:13;;;;;;;152.60;56.10;;;3.40;95.00;;;;;;5090781;28;20367;-73
2021/01/03 06:39:01;;;;;;;155.20;55.53;;;3.40;95.10;;;;;;5079125;28;20043;-73
2021/01/03 06:41:41;;;;;;;161.02;54.28;;;3.50;95.10;;;;;;5087386;28;20055;-73
2021/01/03 06:44:13;;;;;;;146.82;54.15;;;3.50;95.10;;;;;;5096427;28;20053;-72
2021/01/03 06:47:05;;;;;;;141.95;54.97;;;3.60;95.10;;;;;;5089865;28;20136;-74
2021/01/03 06:49:48;;;;;;;143.98;54.67;;;3.50;95.10;;;;;;5076593;28;20076;-73
2021/01/03 06:52:51;;;;;;;141.40;55.10;;;3.50;95.10;;;;;;5092164;28;20028;-73
2021/01/03 06:55:54;;;;;;;124.60;51.65;;;3.50;95.10;;;;;;5088794;28;20036;-73
2021/01/03 06:58:57;;;;;;;134.23;54.00;;;3.50;95.10;;;;;;5094148;28;20078;-73
2021/01/03 07:01:35;;;;;;;145.88;54.33;;;3.40;95.00;;;;;;5089908;28;20352;-73
2021/01/03 07:04:10;;;;;;;111.47;50.75;;;3.40;95.00;;;;;;5097055;28;20027;-74
2021/01/03 07:06:38;;;;;;;119.75;50.65;;;3.40;95.00;;;;;;5090483;28;20051;-73
2021/01/03 07:09:09;;;;;;;134.95;53.13;;;3.40;95.00;;;;;;5089885;28;20036;-73
2021/01/03 07:11:51;;;;;;;124.55;52.88;;;3.40;95.00;;;;;;5095036;28;20031;-72
2021/01/03 07:14:22;;;;;;;117.43;51.33;;;3.40;95.00;;;;;;5087507;28;20830;-73
2021/01/03 07:16:52;;;;;;;133.82;53.85;;;3.40;95.00;;;;;;5092258;28;20475;-73
2021/01/03 07:19:48;;;;;;;118.22;50.28;;;3.40;95.00;;;;;;5096386;28;20059;-72
2021/01/03 07:22:21;;;;;;;128.00;52.80;;;3.40;94.90;;;;;;5092784;28;20027;-72
2021/01/03 07:24:49;;;;;;;125.78;53.65;;;3.40;94.90;;;;;;5092915;28;20039;-73
2021/01/03 07:27:35;;;;;;;137.43;52.50;;;3.40;95.00;;;;;;5093530;28;20046;-72
2021/01/03 07:30:03;;;;;;;;;;;3.30;95.00;;;;;;5094163;28;20443;-73
2021/01/03 07:32:37;;;;;;;126.97;51.17;;;3.40;95.00;;;;;;5091204;28;19912;-73
2021/01/03 07:35:21;;;;;;;134.18;52.60;;;3.40;95.10;;;;;;5089946;28;20020;-72
2021/01/03 07:37:51;;;;;;;114.63;48.92;;;3.40;95.00;;;;;;5094550;28;20277;-73
2021/01/03 07:40:20;;;;;;;133.20;57.58;;;3.40;95.10;;;;;;5091813;28;20024;-73
2021/01/03 07:42:45;;;;;;;127.97;57.03;;;3.40;95.00;;;;;;5097789;28;20673;-72
2021/01/03 07:45:14;;;;;;;122.88;50.28;;;3.40;95.10;;;;;;5086287;28;20027;-72
2021/01/03 07:47:48;;;;;;;115.13;48.10;;;3.40;95.10;;;;;;5092507;28;20077;-73
2021/01/03 07:50:32;;;;;;;105.75;45.45;;;3.40;95.00;;;;;;5090247;28;20032;-72
2021/01/03 07:53:18;;;;;;;102.53;43.80;;;3.50;95.00;;;;;;5090140;28;20036;-73
2021/01/03 07:55:44;;;;;;;99.28;41.30;;;3.50;95.00;;;;;;5076564;28;20044;-72
2021/01/03 07:58:16;;;;;;;93.30;38.10;;;3.50;94.90;;;;;;5090496;28;20383;-73
2021/01/03 08:00:44;;;;;;;92.28;38.10;;;3.50;94.70;;;;;;5093181;28;20032;-72
2021/01/03 08:03:16;;;;;;;84.97;38.13;;;3.50;94.60;;;;;;5092080;28;20069;-73
2021/01/03 08:05:45;;;;;;;85.75;38.90;;;3.50;94.60;;;;;;5091881;28;20066;-73
2021/01/03 08:08:14;;;;;;;87.53;38.42;;;3.50;94.50;;;;;;5092818;28;20543;-73
2021/01/03 08:10:42;;;;;;;91.38;37.85;;;3.50;94.40;;;;;;5093927;28;20070;-73
2021/01/03 08:13:17;;;;;;;78.68;36.00;;;3.50;94.40;;;;;;5090196;28;20082;-73
2021/01/03 08:15:43;;;;;;;87.63;37.22;;;3.50;94.40;;;;;;5093874;28;20502;-73
2021/01/03 08:18:15;;;;;;;85.07;37.58;;;3.50;94.40;;;;;;5095783;28;20036;-74
2021/01/03 08:20:41;;;;;;;84.40;37.63;;;3.60;94.40;;;;;;5092086;28;20032;-72
2021/01/03 08:23:16;;;;;;;84.03;37.20;;;3.60;94.40;;;;;;5090943;28;20040;-73
2021/01/03 08:25:42;;;;;;;86.93;38.17;;;3.60;94.30;;;;;;5090877;28;20028;-72
2021/01/03 08:28:15;;;;;;;91.88;39.08;;;3.60;94.20;;;;;;5098878;28;20367;-74
2021/01/03 08:30:41;;;;;;;89.20;38.83;;;3.50;94.10;;;;;;5090495;28;20031;-73
2021/01/03 08:33:21;;;;;;;78.70;36.13;;;3.50;94.10;;;;;;5090957;28;20127;-74
2021/01/03 08:35:47;;;;;;;79.30;35.40;;;3.50;94.10;;;;;;5088996;28;20024;-73
2021/01/03 08:38:12;;;;;;;83.30;36.28;;;3.50;94.00;;;;;;5089133;28;20088;-73
2021/01/03 08:40:43;;;;;;;81.95;36.63;;;3.50;94.00;;;;;;5092551;28;20035;-71
2021/01/03 08:43:16;;;;;;;80.63;35.97;;;3.50;94.00;;;;;;5093110;28;20024;-73
2021/01/03 08:45:44;;;;;;;87.40;38.67;;;3.60;94.00;;;;;;5078460;28;20059;-75
2021/01/03 08:48:27;;;;;;;82.18;39.00;;;3.60;94.00;;;;;;5092671;28;20039;-73
2021/01/03 08:51:09;;;;;;;82.15;36.75;;;3.60;93.90;;;;;;5091853;28;20046;-73
2021/01/03 08:53:35;;;;;;;97.63;45.78;;;3.60;93.90;;;;;;5094537;28;20467;-73
2021/01/03 08:56:14;;;;;;;80.57;36.70;;;3.60;93.80;;;;;;5093340;28;20021;-74
2021/01/03 08:58:40;;;;;;;77.15;36.72;;;3.60;93.70;;;;;;5091784;28;20063;-74
2021/01/03 09:01:31;;;;;;;86.28;36.55;;;3.60;93.60;;;;;;5092393;28;20055;-73
2021/01/03 09:04:06;;;;;;;79.60;36.35;;;3.60;93.60;;;;;;5094135;28;20024;-74
2021/01/03 09:06:34;;;;;;;85.75;37.05;;;3.60;93.50;;;;;;5083288;28;20043;-72
2021/01/03 09:09:18;;;;;;;80.13;35.85;;;3.60;93.40;;;;;;5098803;28;20066;-74
2021/01/03 09:12:06;;;;;;;79.85;37.28;;;3.60;93.40;;;;;;5099310;28;20133;-73
2021/01/03 09:14:51;;;;;;;82.55;36.25;;;3.60;93.40;;;;;;5099789;28;20441;-73
2021/01/03 09:17:26;;;;;;;82.33;37.83;;;3.60;93.40;;;;;;5082384;28;20034;-73
2021/01/03 09:20:16;;;;;;;83.65;38.92;;;3.60;93.30;;;;;;5100150;28;20364;-73
2021/01/03 09:22:47;;;;;;;86.50;38.17;;;3.60;93.30;;;;;;5095447;28;20027;-72
2021/01/03 09:25:13;;;;;;;86.82;39.63;;;3.60;93.30;;;;;;5099012;28;20051;-72
2021/01/03 09:27:40;;;;;;;91.05;37.42;;;3.70;93.30;;;;;;5099159;28;20063;-72
2021/01/03 09:30:33;;;;;;;88.28;38.45;;;3.70;93.30;;;;;;5095953;28;20084;-72
2021/01/03 09:33:07;;;;;;;84.32;37.67;;;3.70;93.30;;;;;;5085485;28;20438;-71
2021/01/03 09:36:00;;;;;;;90.07;40.37;;;3.70;93.00;;;;;;5094556;28;20044;-70
2021/01/03 09:38:54;;;;;;;85.32;37.78;;;3.70;93.00;;;;;;5075008;28;20170;-75
2021/01/03 09:41:35;;;;;;;86.03;37.72;;;3.80;93.00;;;;;;5094032;28;20598;-72
2021/01/03 09:44:19;;;;;;;87.10;38.50;;;3.70;92.90;;;;;;5092003;28;20036;-73
2021/01/03 09:46:51;;;;;;;88.65;37.55;;;3.70;92.90;;;;;;5096115;28;20024;-72
2021/01/03 09:49:37;;;;;;;90.43;40.78;;;3.80;93.00;;;;;;5092728;28;20203;-71
2021/01/03 09:52:26;;;;;;;87.93;39.78;;;3.80;93.00;;;;;;5103045;28;20039;-71
2021/01/03 09:54:58;;;;;;;94.65;41.70;;;3.90;93.00;;;;;;5087434;28;20031;-72
2021/01/03 09:57:43;;;;;;;97.50;43.30;;;3.90;92.90;;;;;;5098291;28;20382;-73
2021/01/03 10:00:17;;;;;;;;;;;3.90;92.90;;;;;;5071935;28;20101;-72
2021/01/03 10:02:43;;;;;;;94.82;39.95;;;4.00;93.00;;;;;;5076339;28;19922;-73
2021/01/03 10:05:31;;;;;;;96.65;43.63;;;4.10;93.00;;;;;;5096231;28;20044;-71
2021/01/03 10:07:59;;;;;;;95.70;42.67;;;4.10;92.80;;;;;;5095040;28;20113;-73
2021/01/03 10:10:48;;;;;;;91.70;41.58;;;4.10;92.60;;;;;;5091764;28;20032;-72
2021/01/03 10:13:16;;;;;;;95.65;42.53;;;4.10;92.40;;;;;;5090770;28;20020;-71
2021/01/03 10:15:42;;;;;;;99.68;41.10;;;4.10;92.30;;;;;;5102130;28;20032;-72
2021/01/03 10:18:11;;;;;;;94.43;42.70;;;4.10;91.90;;;;;;5092467;28;20379;-72
2021/01/03 10:20:49;;;;;;;95.85;46.25;;;4.10;91.90;;;;;;5097118;28;20065;-72
2021/01/03 10:23:39;;;;;;;102.50;45.80;;;4.10;92.10;;;;;;5089662;28;20514;-73
2021/01/03 10:26:32;;;;;;;103.82;46.60;;;4.10;92.10;;;;;;5097319;28;20031;-74
2021/01/03 10:28:59;;;;;;;98.10;45.17;;;4.10;92.10;;;;;;5079711;28;20028;-73
2021/01/03 10:31:26;;;;;;;102.15;45.95;;;4.10;91.90;;;;;;5094959;28;20145;-73
2021/01/03 10:33:52;;;;;;;104.53;46.60;;;4.00;91.70;;;;;;5095677;28;20040;-73
2021/01/03 10:36:22;;;;;;;98.72;43.88;;;4.00;92.00;;;;;;5096666;28;20115;-73
2021/01/03 10:38:48;;;;;;;98.05;44.47;;;3.90;91.90;;;;;;5094616;28;20523;-73
2021/01/03 10:41:16;;;;;;;100.75;45.47;;;4.00;92.10;;;;;;5099305;28;20028;-73
2021/01/03 10:43:44;;;;;;;111.78;43.72;;;4.10;92.10;;;;;;5090712;28;20081;-74
2021/01/03 10:46:09;;;;;;;105.35;45.17;;;4.10;92.10;;;;;;5090684;28;20027;-73
2021/01/03 10:48:35;;;;;;;102.47;46.08;;;4.10;92.00;;;;;;5092143;28;20028;-73
2021/01/03 10:51:00;;;;;;;105.72;45.60;;;4.10;91.90;;;;;;5094984;28;20036;-74
2021/01/03 10:53:26;;;;;;;106.38;45.65;;;4.10;92.00;;;;;;5093287;28;20075;-73
2021/01/03 10:55:52;;;;;;;112.32;47.83;;;4.20;92.10;;;;;;5098154;28;20071;-73
2021/01/03 10:58:17;;;;;;;109.47;47.10;;;4.20;91.80;;;;;;5081675;28;20036;-73
2021/01/03 11:00:43;;;;;;;111.60;50.60;;;4.20;91.70;;;;;;5074050;28;20539;-73
2021/01/03 11:03:08;;;;;;;112.45;50.78;;;4.10;91.60;;;;;;5093096;28;20110;-72
2021/01/03 11:05:34;;;;;;;103.65;48.85;;;4.20;91.50;;;;;;5073647;28;20459;-73
2021/01/03 11:08:01;;;;;;;105.93;47.58;;;4.10;91.70;;;;;;5089871;28;20099;-71
2021/01/03 11:10:26;;;;;;;100.40;47.92;;;4.20;91.80;;;;;;5095492;28;20080;-73
2021/01/03 11:12:52;;;;;;;88.22;43.45;;;4.20;91.70;;;;;;5093786;28;20409;-73
2021/01/03 11:15:18;;;;;;;87.93;42.75;;;4.20;91.50;;;;;;5099045;28;20156;-73
2021/01/03 11:17:43;;;;;;;85.50;40.60;;;4.10;91.10;;;;;;5093390;28;20055;-74
2021/01/03 11:20:10;;;;;;;86.93;40.15;;;4.10;91.30;;;;;;5095341;28;20361;-73
2021/01/03 11:22:35;;;;;;;85.03;39.88;;;4.20;91.30;;;;;;5096320;28;20031;-73
2021/01/03 11:25:01;;;;;;;79.00;37.05;;;4.10;91.40;;;;;;5093019;28;20077;-74
2021/01/03 11:27:27;;;;;;;80.05;38.13;;;4.20;90.90;;;;;;5075880;28;20491;-76
2021/01/03 11:29:53;;;;;;;74.88;37.75;;;4.10;90.90;;;;;;5091942;28;20043;-71
2021/01/03 11:32:25;;;;;;;79.20;36.33;;;4.10;91.10;;;;;;5094155;28;20032;-71
2021/01/03 11:34:52;;;;;;;76.75;36.83;;;4.20;91.10;;;;;;5098402;28;20076;-71
2021/01/03 11:37:20;;;;;;;82.10;38.70;;;4.10;91.00;;;;;;5093101;28;20122;-72
2021/01/03 11:39:47;;;;;;;85.40;39.35;;;4.10;91.00;;;;;;5078679;28;20078;-70
2021/01/03 11:42:16;;;;;;;78.88;37.65;;;4.20;91.20;;;;;;5096895;28;20115;-71
2021/01/03 11:44:43;;;;;;;78.95;36.70;;;4.20;91.10;;;;;;5094045;28;20035;-71
2021/01/03 11:47:13;;;;;;;83.75;39.67;;;4.20;90.90;;;;;;5092092;28;20998;-71
2021/01/03 11:49:39;;;;;;;80.10;36.58;;;4.30;90.90;;;;;;5095150;28;20085;-72
2021/01/03 11:52:07;;;;;;;79.15;36.03;;;4.30;91.00;;;;;;5093725;28;20023;-71
2021/01/03 11:54:34;;;;;;;76.28;36.65;;;4.30;90.80;;;;;;5082451;28;20732;-73
2021/01/03 11:57:00;;;;;;;80.07;36.75;;;4.30;90.70;;;;;;5090164;28;20036;-72
2021/01/03 11:59:27;;;;;;;81.07;39.25;;;4.30;90.50;;;;;;5087559;28;20109;-72
2021/01/03 12:02:07;;;;;;;70.00;34.67;;;4.30;90.40;;;;;;5086828;28;20042;-72
2021/01/03 12:04:33;;;;;;;81.43;37.85;;;4.40;90.40;;;;;;5083196;28;20129;-72
2021/01/03 12:07:02;;;;;;;78.95;38.88;;;4.40;90.20;;;;;;5091681;28;20054;-75
2021/01/03 12:09:29;;;;;;;86.72;39.67;;;4.40;90.10;;;;;;5084427;28;20058;-72
2021/01/03 12:12:02;;;;;;;75.53;37.63;;;4.30;90.00;;;;;;5083327;28;20039;-74
2021/01/03 12:14:28;;;;;;;80.22;39.05;;;4.40;90.10;;;;;;5073953;28;20036;-70
2021/01/03 12:17:03;;;;;;;79.50;39.65;;;4.40;90.00;;;;;;5055122;28;20451;-73
2021/01/03 12:19:29;;;;;;;84.68;39.80;;;4.30;90.00;;;;;;5074928;28;20039;-72
2021/01/03 12:21:59;;;;;;;89.55;41.35;;;4.40;90.10;;;;;;5090419;28;20514;-71
2021/01/03 12:24:25;;;;;;;85.18;42.33;;;4.40;89.60;;;;;;5080951;28;20434;-72
2021/01/03 12:26:51;;;;;;;81.93;38.00;;;4.40;89.90;;;;;;5090675;28;20032;-73
2021/01/03 12:29:18;;;;;;;83.60;40.20;;;4.50;89.90;;;;;;5084666;28;20032;-71
2021/01/03 12:31:58;;;;;;;83.28;40.58;;;4.60;89.40;;;;;;5090609;28;20036;-71
2021/01/03 12:34:26;;;;;;;75.72;40.28;;;4.60;89.10;;;;;;5087357;28;20020;-72
2021/01/03 12:37:00;;;;;;;78.78;39.40;;;4.60;89.00;;;;;;5087250;28;20378;-75
2021/01/03 12:39:25;;;;;;;79.80;39.88;;;4.50;89.10;;;;;;5080128;28;20032;-74
2021/01/03 12:41:52;;;;;;;79.50;40.03;;;4.50;89.10;;;;;;5070665;28;20600;-71
2021/01/03 12:44:18;;;;;;;80.32;39.78;;;4.50;88.50;;;;;;5094933;28;20054;-71
2021/01/03 12:46:43;;;;;;;79.22;40.17;;;4.50;88.90;;;;;;5088113;28;20476;-71
2021/01/03 12:49:10;;;;;;;80.13;37.97;;;4.40;88.40;;;;;;5091460;28;20070;-72
2021/01/03 12:51:35;;;;;;;75.30;37.88;;;4.40;88.40;;;;;;5089284;28;20028;-75
2021/01/03 12:54:02;;;;;;;76.88;38.42;;;4.50;88.30;;;;;;5080386;28;20088;-72
2021/01/03 12:56:29;;;;;;;67.82;36.13;;;4.50;88.60;;;;;;5093336;28;20119;-72